sensor_id;sensor_type;location;lat;lon;timestamp;temperature;humidity
29917;DHT22;16786;49.466;11.068;2023-02-20T00:02:04;7.90;99.90
29917;DHT22;16786;49.466;11.068;2023-02-20T00:04:33;8.00;99.90
29917;DHT22;16786;49.466;11.068;2023-02-20T00:07:04;8.00;99.90
29917;DHT22;16786;49.466;11.068;2023-02-20T00:09:34;8.00;99.90
29917;DHT22;16786;49.466;11.068;2023-02-20T00:12:03;7.90;99.90
29917;DHT22;16786;49.466;11.068;2023-02-20T00:14:36;7.90;99.90
29917;DHT22;16786;49.466;11.068;2023-02-20T00:17:07;8.00;99.90
29917;DHT22;16786;49.466;11.068;2023-02-20T00:19:40;8.00;99.90
29917;DHT22;16786;49.466;11.068;2023-02-20T00:22:12;7.90;99.90
29917;DHT22;16786;49.466;11.068;2023-02-20T00:24:41;7.90;99.90
29917;DHT22;16786;49.466;11.068;2023-02-20T00:27:12;7.90;99.90
29917;DHT22;16786;49.466;11.068;2023-02-20T00:29:41;7.80;99.90
29917;DHT22;16786;49.466;11.068;2023-02-20T00:32:15;7.80;99.90
29917;DHT22;16786;49.466;11.068;2023-02-20T00:34:45;7.80;99.90
29917;DHT22;16786;49.466;11.068;2023-02-20T00:37:14;7.80;99.90
29917;DHT22;16786;49.466;11.068;2023-02-20T00:39:44;7.80;99.90
29917;DHT22;16786;49.466;11.068;2023-02-20T00:42:17;7.80;99.90
29917;DHT22;16786;49.466;11.068;2023-02-20T00:44:55;7.80;99.90
29917;DHT22;16786;49.466;11.068;2023-02-20T00:47:26;7.80;99.90
29917;DHT22;16786;49.466;11.068;2023-02-20T00:49:59;7.90;99.90
29917;DHT22;16786;49.466;11.068;2023-02-20T00:52:28;7.80;99.90
29917;DHT22;16786;49.466;11.068;2023-02-20T00:54:57;7.80;99.90
29917;DHT22;16786;49.466;11.068;2023-02-20T00:57:25;7.80;99.90
29917;DHT22;16786;49.466;11.068;2023-02-20T00:59:53;7.70;99.90
29917;DHT22;16786;49.466;11.068;2023-02-20T01:02:23;7.70;99.90
29917;DHT22;16786;49.466;11.068;2023-02-20T01:04:52;7.80;99.90
29917;DHT22;16786;49.466;11.068;2023-02-20T01:07:22;7.80;99.90
29917;DHT22;16786;49.466;11.068;2023-02-20T01:09:52;7.70;99.90
29917;DHT22;16786;49.466;11.068;2023-02-20T01:12:20;7.70;99.90
29917;DHT22;16786;49.466;11.068;2023-02-20T01:14:50;7.70;99.90
29917;DHT22;16786;49.466;11.068;2023-02-20T01:17:18;7.70;99.90
29917;DHT22;16786;49.466;11.068;2023-02-20T01:19:46;7.80;99.90
29917;DHT22;16786;49.466;11.068;2023-02-20T01:22:14;7.80;99.90
29917;DHT22;16786;49.466;11.068;2023-02-20T01:24:42;7.80;99.90
29917;DHT22;16786;49.466;11.068;2023-02-20T01:27:09;7.70;99.90
29917;DHT22;16786;49.466;11.068;2023-02-20T01:29:37;7.80;99.90
29917;DHT22;16786;49.466;11.068;2023-02-20T01:32:05;7.80;99.90
29917;DHT22;16786;49.466;11.068;2023-02-20T01:34:32;7.70;99.90
29917;DHT22;16786;49.466;11.068;2023-02-20T01:36:59;7.70;99.90
29917;DHT22;16786;49.466;11.068;2023-02-20T01:39:28;7.70;99.90
29917;DHT22;16786;49.466;11.068;2023-02-20T01:42:00;7.70;99.90
29917;DHT22;16786;49.466;11.068;2023-02-20T01:44:34;7.70;99.90
29917;DHT22;16786;49.466;11.068;2023-02-20T01:47:06;7.70;99.90
29917;DHT22;16786;49.466;11.068;2023-02-20T01:49:57;7.70;99.90
29917;DHT22;16786;49.466;11.068;2023-02-20T01:52:28;7.70;99.90
29917;DHT22;16786;49.466;11.068;2023-02-20T01:55:03;7.60;99.90
29917;DHT22;16786;49.466;11.068;2023-02-20T01:57:33;7.50;99.90
29917;DHT22;16786;49.466;11.068;2023-02-20T02:00:14;7.60;99.90
29917;DHT22;16786;49.466;11.068;2023-02-20T02:02:47;7.50;99.90
29917;DHT22;16786;49.466;11.068;2023-02-20T02:05:16;7.50;99.90
29917;DHT22;16786;49.466;11.068;2023-02-20T02:07:44;7.50;99.90
29917;DHT22;16786;49.466;11.068;2023-02-20T02:10:19;7.50;99.90
29917;DHT22;16786;49.466;11.068;2023-02-20T02:12:52;7.50;99.90
29917;DHT22;16786;49.466;11.068;2023-02-20T02:15:22;7.60;99.90
29917;DHT22;16786;49.466;11.068;2023-02-20T02:42:19;7.60;99.90
29917;DHT22;16786;49.466;11.068;2023-02-20T02:44:55;7.60;99.90
29917;DHT22;16786;49.466;11.068;2023-02-20T02:50:33;7.60;99.90
29917;DHT22;16786;49.466;11.068;2023-02-20T02:53:07;7.50;99.90
29917;DHT22;16786;49.466;11.068;2023-02-20T02:55:35;7.50;99.90
29917;DHT22;16786;49.466;11.068;2023-02-20T02:58:04;7.50;99.90
29917;DHT22;16786;49.466;11.068;2023-02-20T03:00:39;7.40;99.90
29917;DHT22;16786;49.466;11.068;2023-02-20T03:03:23;7.40;99.90
29917;DHT22;16786;49.466;11.068;2023-02-20T03:11:16;7.30;99.90
29917;DHT22;16786;49.466;11.068;2023-02-20T03:16:58;7.20;99.90
29917;DHT22;16786;49.466;11.068;2023-02-20T03:19:37;7.30;99.90
29917;DHT22;16786;49.466;11.068;2023-02-20T03:22:35;7.20;99.90
29917;DHT22;16786;49.466;11.068;2023-02-20T03:25:12;7.20;99.90
29917;DHT22;16786;49.466;11.068;2023-02-20T03:27:59;7.20;99.90
29917;DHT22;16786;49.466;11.068;2023-02-20T03:30:50;7.20;99.90
29917;DHT22;16786;49.466;11.068;2023-02-20T03:33:45;7.20;99.90
29917;DHT22;16786;49.466;11.068;2023-02-20T03:36:42;7.20;99.90
29917;DHT22;16786;49.466;11.068;2023-02-20T03:39:43;7.20;99.90
29917;DHT22;16786;49.466;11.068;2023-02-20T03:42:34;7.10;99.90
29917;DHT22;16786;49.466;11.068;2023-02-20T03:45:28;7.10;99.90
29917;DHT22;16786;49.466;11.068;2023-02-20T03:48:02;7.10;99.90
29917;DHT22;16786;49.466;11.068;2023-02-20T03:50:32;7.10;99.90
29917;DHT22;16786;49.466;11.068;2023-02-20T03:53:01;7.10;99.90
29917;DHT22;16786;49.466;11.068;2023-02-20T03:55:29;7.00;99.90
29917;DHT22;16786;49.466;11.068;2023-02-20T03:58:03;7.10;99.90
29917;DHT22;16786;49.466;11.068;2023-02-20T04:00:38;7.00;99.90
29917;DHT22;16786;49.466;11.068;2023-02-20T04:03:20;7.10;99.90
29917;DHT22;16786;49.466;11.068;2023-02-20T04:05:53;7.10;99.90
29917;DHT22;16786;49.466;11.068;2023-02-20T04:08:37;7.10;99.90
29917;DHT22;16786;49.466;11.068;2023-02-20T04:11:25;7.10;99.90
29917;DHT22;16786;49.466;11.068;2023-02-20T04:13:56;7.20;99.90
29917;DHT22;16786;49.466;11.068;2023-02-20T04:16:25;7.20;99.90
29917;DHT22;16786;49.466;11.068;2023-02-20T04:18:53;7.20;99.90
29917;DHT22;16786;49.466;11.068;2023-02-20T04:21:29;7.20;99.90
29917;DHT22;16786;49.466;11.068;2023-02-20T04:24:11;7.20;99.90
29917;DHT22;16786;49.466;11.068;2023-02-20T04:26:40;7.10;99.90
29917;DHT22;16786;49.466;11.068;2023-02-20T04:29:07;7.20;99.90
29917;DHT22;16786;49.466;11.068;2023-02-20T04:31:35;7.20;99.90
29917;DHT22;16786;49.466;11.068;2023-02-20T04:34:04;7.20;99.90
29917;DHT22;16786;49.466;11.068;2023-02-20T04:36:31;7.30;99.90
29917;DHT22;16786;49.466;11.068;2023-02-20T04:38:59;7.30;99.90
29917;DHT22;16786;49.466;11.068;2023-02-20T04:41:30;7.30;99.90
29917;DHT22;16786;49.466;11.068;2023-02-20T04:43:58;7.20;99.90
29917;DHT22;16786;49.466;11.068;2023-02-20T04:46:46;7.30;99.90
29917;DHT22;16786;49.466;11.068;2023-02-20T04:49:15;7.30;99.90
29917;DHT22;16786;49.466;11.068;2023-02-20T04:51:48;7.30;99.90
29917;DHT22;16786;49.466;11.068;2023-02-20T04:54:15;7.20;99.90
29917;DHT22;16786;49.466;11.068;2023-02-20T04:56:43;7.20;99.90
29917;DHT22;16786;49.466;11.068;2023-02-20T04:59:10;7.20;99.90
29917;DHT22;16786;49.466;11.068;2023-02-20T05:01:38;7.30;99.90
29917;DHT22;16786;49.466;11.068;2023-02-20T05:04:06;7.30;99.90
29917;DHT22;16786;49.466;11.068;2023-02-20T05:06:40;7.30;99.90
29917;DHT22;16786;49.466;11.068;2023-02-20T05:09:07;7.30;99.90
29917;DHT22;16786;49.466;11.068;2023-02-20T05:11:37;7.30;99.90
29917;DHT22;16786;49.466;11.068;2023-02-20T05:14:05;7.30;99.90
29917;DHT22;16786;49.466;11.068;2023-02-20T05:16:33;7.20;99.90
29917;DHT22;16786;49.466;11.068;2023-02-20T05:19:00;7.30;99.90
29917;DHT22;16786;49.466;11.068;2023-02-20T05:21:28;7.30;99.90
29917;DHT22;16786;49.466;11.068;2023-02-20T05:24:14;7.30;99.90
29917;DHT22;16786;49.466;11.068;2023-02-20T05:26:42;7.20;99.90
29917;DHT22;16786;49.466;11.068;2023-02-20T05:29:10;7.30;99.90
29917;DHT22;16786;49.466;11.068;2023-02-20T05:31:40;7.30;99.90
29917;DHT22;16786;49.466;11.068;2023-02-20T05:34:08;7.20;99.90
29917;DHT22;16786;49.466;11.068;2023-02-20T05:36:35;7.20;99.90
29917;DHT22;16786;49.466;11.068;2023-02-20T05:39:04;7.20;99.90
29917;DHT22;16786;49.466;11.068;2023-02-20T05:41:31;7.20;99.90
29917;DHT22;16786;49.466;11.068;2023-02-20T05:43:58;7.10;99.90
29917;DHT22;16786;49.466;11.068;2023-02-20T05:46:26;7.10;99.90
29917;DHT22;16786;49.466;11.068;2023-02-20T05:48:54;7.00;99.90
29917;DHT22;16786;49.466;11.068;2023-02-20T05:51:26;7.00;99.90
29917;DHT22;16786;49.466;11.068;2023-02-20T05:53:55;6.90;99.90
29917;DHT22;16786;49.466;11.068;2023-02-20T05:56:23;6.90;99.90
29917;DHT22;16786;49.466;11.068;2023-02-20T05:58:50;6.90;99.90
29917;DHT22;16786;49.466;11.068;2023-02-20T06:01:26;6.90;99.90
29917;DHT22;16786;49.466;11.068;2023-02-20T06:03:53;6.90;99.90
29917;DHT22;16786;49.466;11.068;2023-02-20T06:06:22;6.90;99.90
29917;DHT22;16786;49.466;11.068;2023-02-20T06:08:49;7.00;99.90
29917;DHT22;16786;49.466;11.068;2023-02-20T06:11:16;7.00;99.90
29917;DHT22;16786;49.466;11.068;2023-02-20T06:13:44;7.00;99.90
29917;DHT22;16786;49.466;11.068;2023-02-20T06:16:12;6.90;99.90
29917;DHT22;16786;49.466;11.068;2023-02-20T06:18:42;6.90;99.90
29917;DHT22;16786;49.466;11.068;2023-02-20T06:21:10;6.90;99.90
29917;DHT22;16786;49.466;11.068;2023-02-20T06:23:38;6.90;99.90
29917;DHT22;16786;49.466;11.068;2023-02-20T06:26:06;6.90;99.90
29917;DHT22;16786;49.466;11.068;2023-02-20T06:28:33;6.90;99.90
29917;DHT22;16786;49.466;11.068;2023-02-20T06:31:01;6.90;99.90
29917;DHT22;16786;49.466;11.068;2023-02-20T06:33:29;6.90;99.90
29917;DHT22;16786;49.466;11.068;2023-02-20T06:35:56;6.90;99.90
29917;DHT22;16786;49.466;11.068;2023-02-20T06:38:24;6.90;99.90
29917;DHT22;16786;49.466;11.068;2023-02-20T06:40:51;6.90;99.90
29917;DHT22;16786;49.466;11.068;2023-02-20T06:43:19;6.90;99.90
29917;DHT22;16786;49.466;11.068;2023-02-20T06:45:47;6.90;99.90
29917;DHT22;16786;49.466;11.068;2023-02-20T06:48:15;6.90;99.90
29917;DHT22;16786;49.466;11.068;2023-02-20T06:50:43;6.80;99.90
29917;DHT22;16786;49.466;11.068;2023-02-20T06:53:10;6.90;99.90
29917;DHT22;16786;49.466;11.068;2023-02-20T06:55:37;6.90;99.90
29917;DHT22;16786;49.466;11.068;2023-02-20T06:58:05;7.00;99.90
29917;DHT22;16786;49.466;11.068;2023-02-20T07:00:32;7.00;99.90
29917;DHT22;16786;49.466;11.068;2023-02-20T07:03:00;7.10;99.90
29917;DHT22;16786;49.466;11.068;2023-02-20T07:05:27;7.20;99.90
29917;DHT22;16786;49.466;11.068;2023-02-20T07:07:55;7.20;99.90
29917;DHT22;16786;49.466;11.068;2023-02-20T07:10:23;7.20;99.90
29917;DHT22;16786;49.466;11.068;2023-02-20T07:12:51;7.20;99.90
29917;DHT22;16786;49.466;11.068;2023-02-20T07:15:18;7.20;99.90
29917;DHT22;16786;49.466;11.068;2023-02-20T07:17:46;7.30;99.90
29917;DHT22;16786;49.466;11.068;2023-02-20T07:20:14;7.20;99.90
29917;DHT22;16786;49.466;11.068;2023-02-20T07:22:53;7.20;99.90
29917;DHT22;16786;49.466;11.068;2023-02-20T07:25:29;7.20;99.90
29917;DHT22;16786;49.466;11.068;2023-02-20T07:27:56;7.20;99.90
29917;DHT22;16786;49.466;11.068;2023-02-20T07:30:24;7.20;99.90
29917;DHT22;16786;49.466;11.068;2023-02-20T07:32:51;7.10;99.90
29917;DHT22;16786;49.466;11.068;2023-02-20T07:35:19;7.10;99.90
29917;DHT22;16786;49.466;11.068;2023-02-20T07:37:46;7.00;99.90
29917;DHT22;16786;49.466;11.068;2023-02-20T07:40:13;7.00;99.90
29917;DHT22;16786;49.466;11.068;2023-02-20T07:42:41;7.10;99.90
29917;DHT22;16786;49.466;11.068;2023-02-20T07:45:20;7.20;99.90
29917;DHT22;16786;49.466;11.068;2023-02-20T07:47:48;7.20;99.90
29917;DHT22;16786;49.466;11.068;2023-02-20T07:50:15;7.30;99.90
29917;DHT22;16786;49.466;11.068;2023-02-20T07:52:44;7.40;99.90
29917;DHT22;16786;49.466;11.068;2023-02-20T07:55:16;7.60;99.90
29917;DHT22;16786;49.466;11.068;2023-02-20T07:57:46;7.70;99.90
29917;DHT22;16786;49.466;11.068;2023-02-20T08:00:16;7.80;99.90
29917;DHT22;16786;49.466;11.068;2023-02-20T08:02:43;7.90;99.90
29917;DHT22;16786;49.466;11.068;2023-02-20T08:05:11;8.10;99.90
29917;DHT22;16786;49.466;11.068;2023-02-20T08:07:46;8.10;99.90
29917;DHT22;16786;49.466;11.068;2023-02-20T08:10:15;8.20;99.90
29917;DHT22;16786;49.466;11.068;2023-02-20T08:12:44;8.30;99.90
29917;DHT22;16786;49.466;11.068;2023-02-20T08:15:12;8.50;99.90
29917;DHT22;16786;49.466;11.068;2023-02-20T08:17:40;8.60;99.90
29917;DHT22;16786;49.466;11.068;2023-02-20T08:20:14;8.50;99.90
29917;DHT22;16786;49.466;11.068;2023-02-20T08:22:46;8.50;99.90
29917;DHT22;16786;49.466;11.068;2023-02-20T08:25:15;8.40;99.90
29917;DHT22;16786;49.466;11.068;2023-02-20T08:27:47;8.40;99.90
29917;DHT22;16786;49.466;11.068;2023-02-20T08:30:23;8.30;99.90
29917;DHT22;16786;49.466;11.068;2023-02-20T08:32:52;8.30;99.90
29917;DHT22;16786;49.466;11.068;2023-02-20T08:35:21;8.20;99.90
29917;DHT22;16786;49.466;11.068;2023-02-20T08:37:50;8.20;99.90
29917;DHT22;16786;49.466;11.068;2023-02-20T08:40:18;8.10;99.90
29917;DHT22;16786;49.466;11.068;2023-02-20T08:42:49;8.20;99.90
29917;DHT22;16786;49.466;11.068;2023-02-20T08:45:16;8.30;99.90
29917;DHT22;16786;49.466;11.068;2023-02-20T08:47:44;8.30;99.90
29917;DHT22;16786;49.466;11.068;2023-02-20T08:50:11;8.40;99.90
29917;DHT22;16786;49.466;11.068;2023-02-20T08:52:41;8.70;99.90
29917;DHT22;16786;49.466;11.068;2023-02-20T08:55:10;8.80;99.90
29917;DHT22;16786;49.466;11.068;2023-02-20T08:57:41;8.90;99.90
29917;DHT22;16786;49.466;11.068;2023-02-20T09:00:09;8.80;99.90
29917;DHT22;16786;49.466;11.068;2023-02-20T09:02:36;9.00;99.90
29917;DHT22;16786;49.466;11.068;2023-02-20T09:05:04;8.90;99.90
29917;DHT22;16786;49.466;11.068;2023-02-20T09:07:31;9.00;99.90
29917;DHT22;16786;49.466;11.068;2023-02-20T09:10:00;9.10;99.90
29917;DHT22;16786;49.466;11.068;2023-02-20T09:12:27;9.10;99.90
29917;DHT22;16786;49.466;11.068;2023-02-20T09:14:55;9.10;99.90
29917;DHT22;16786;49.466;11.068;2023-02-20T09:17:22;9.20;99.90
29917;DHT22;16786;49.466;11.068;2023-02-20T09:19:50;9.20;99.90
29917;DHT22;16786;49.466;11.068;2023-02-20T09:22:23;9.30;99.90
29917;DHT22;16786;49.466;11.068;2023-02-20T09:24:51;9.40;99.90
29917;DHT22;16786;49.466;11.068;2023-02-20T09:27:19;9.40;99.90
29917;DHT22;16786;49.466;11.068;2023-02-20T09:29:47;9.50;99.90
29917;DHT22;16786;49.466;11.068;2023-02-20T09:32:15;9.60;99.90
29917;DHT22;16786;49.466;11.068;2023-02-20T09:34:42;9.60;99.90
29917;DHT22;16786;49.466;11.068;2023-02-20T09:37:11;9.50;99.90
29917;DHT22;16786;49.466;11.068;2023-02-20T09:39:39;9.50;99.90
29917;DHT22;16786;49.466;11.068;2023-02-20T09:45:17;9.70;99.90
29917;DHT22;16786;49.466;11.068;2023-02-20T09:48:10;9.60;99.90
29917;DHT22;16786;49.466;11.068;2023-02-20T09:50:56;9.90;99.90
29917;DHT22;16786;49.466;11.068;2023-02-20T09:53:42;10.00;99.90
29917;DHT22;16786;49.466;11.068;2023-02-20T09:56:16;10.10;99.90
29917;DHT22;16786;49.466;11.068;2023-02-20T09:58:48;10.30;99.90
29917;DHT22;16786;49.466;11.068;2023-02-20T10:01:20;10.30;99.90
29917;DHT22;16786;49.466;11.068;2023-02-20T10:06:25;10.40;99.90
29917;DHT22;16786;49.466;11.068;2023-02-20T10:08:53;10.50;99.90
29917;DHT22;16786;49.466;11.068;2023-02-20T10:11:51;10.70;99.90
29917;DHT22;16786;49.466;11.068;2023-02-20T10:14:33;10.80;99.90
29917;DHT22;16786;49.466;11.068;2023-02-20T10:23:32;10.80;99.90
29917;DHT22;16786;49.466;11.068;2023-02-20T10:26:12;10.90;99.90
29917;DHT22;16786;49.466;11.068;2023-02-20T10:28:41;11.00;99.90
29917;DHT22;16786;49.466;11.068;2023-02-20T10:31:26;11.20;99.90
29917;DHT22;16786;49.466;11.068;2023-02-20T10:34:11;11.40;99.90
29917;DHT22;16786;49.466;11.068;2023-02-20T10:36:47;11.40;99.90
29917;DHT22;16786;49.466;11.068;2023-02-20T10:39:20;11.50;99.90
29917;DHT22;16786;49.466;11.068;2023-02-20T10:42:02;11.40;99.90
29917;DHT22;16786;49.466;11.068;2023-02-20T10:45:14;11.30;99.90
29917;DHT22;16786;49.466;11.068;2023-02-20T10:47:49;11.40;99.90
29917;DHT22;16786;49.466;11.068;2023-02-20T10:50:28;11.30;99.90
29917;DHT22;16786;49.466;11.068;2023-02-20T10:58:31;11.80;99.90
29917;DHT22;16786;49.466;11.068;2023-02-20T11:01:05;11.80;99.90
29917;DHT22;16786;49.466;11.068;2023-02-20T11:07:09;11.50;99.90
29917;DHT22;16786;49.466;11.068;2023-02-20T11:09:39;11.50;99.90
29917;DHT22;16786;49.466;11.068;2023-02-20T11:12:09;11.50;99.90
29917;DHT22;16786;49.466;11.068;2023-02-20T11:14:45;11.60;99.90
29917;DHT22;16786;49.466;11.068;2023-02-20T11:17:18;11.50;99.90
29917;DHT22;16786;49.466;11.068;2023-02-20T11:19:47;11.60;99.90
29917;DHT22;16786;49.466;11.068;2023-02-20T11:22:16;11.90;99.90
29917;DHT22;16786;49.466;11.068;2023-02-20T11:24:45;12.30;99.90
29917;DHT22;16786;49.466;11.068;2023-02-20T11:27:21;12.60;99.90
29917;DHT22;16786;49.466;11.068;2023-02-20T11:30:11;12.80;99.90
29917;DHT22;16786;49.466;11.068;2023-02-20T11:32:42;12.80;99.90
29917;DHT22;16786;49.466;11.068;2023-02-20T11:37:47;13.10;99.90
29917;DHT22;16786;49.466;11.068;2023-02-20T11:40:26;13.30;99.90
29917;DHT22;16786;49.466;11.068;2023-02-20T11:42:55;13.50;99.90
29917;DHT22;16786;49.466;11.068;2023-02-20T11:48:19;14.10;99.90
29917;DHT22;16786;49.466;11.068;2023-02-20T11:50:51;14.50;99.90
29917;DHT22;16786;49.466;11.068;2023-02-20T11:53:28;14.20;99.90
29917;DHT22;16786;49.466;11.068;2023-02-20T11:56:07;13.50;99.90
29917;DHT22;16786;49.466;11.068;2023-02-20T11:58:35;13.50;99.90
29917;DHT22;16786;49.466;11.068;2023-02-20T12:01:04;13.40;99.90
29917;DHT22;16786;49.466;11.068;2023-02-20T12:03:33;13.60;99.90
29917;DHT22;16786;49.466;11.068;2023-02-20T12:06:48;13.80;99.90
29917;DHT22;16786;49.466;11.068;2023-02-20T12:08:53;14.00;99.90
29917;DHT22;16786;49.466;11.068;2023-02-20T12:11:25;14.20;99.90
29917;DHT22;16786;49.466;11.068;2023-02-20T12:13:55;14.30;99.90
29917;DHT22;16786;49.466;11.068;2023-02-20T12:22:17;14.60;99.90
29917;DHT22;16786;49.466;11.068;2023-02-20T12:28:11;14.90;99.90
29917;DHT22;16786;49.466;11.068;2023-02-20T12:31:02;14.70;99.90
29917;DHT22;16786;49.466;11.068;2023-02-20T12:33:38;14.80;99.90
29917;DHT22;16786;49.466;11.068;2023-02-20T12:36:35;15.20;99.90
29917;DHT22;16786;49.466;11.068;2023-02-20T12:39:16;15.20;99.90
29917;DHT22;16786;49.466;11.068;2023-02-20T12:44:58;15.80;99.90
29917;DHT22;16786;49.466;11.068;2023-02-20T12:47:36;15.70;99.90
29917;DHT22;16786;49.466;11.068;2023-02-20T12:55:21;17.20;99.90
29917;DHT22;16786;49.466;11.068;2023-02-20T13:00:38;17.00;99.90
29917;DHT22;16786;49.466;11.068;2023-02-20T13:03:13;17.30;99.90
29917;DHT22;16786;49.466;11.068;2023-02-20T13:05:44;18.20;99.90
29917;DHT22;16786;49.466;11.068;2023-02-20T13:08:53;17.90;99.90
29917;DHT22;16786;49.466;11.068;2023-02-20T13:11:23;18.90;99.90
29917;DHT22;16786;49.466;11.068;2023-02-20T13:16:58;19.90;99.90
29917;DHT22;16786;49.466;11.068;2023-02-20T13:20:08;20.10;99.90
29917;DHT22;16786;49.466;11.068;2023-02-20T13:22:30;20.00;99.90
29917;DHT22;16786;49.466;11.068;2023-02-20T13:33:46;18.90;99.90
29917;DHT22;16786;49.466;11.068;2023-02-20T13:36:38;19.20;99.90
29917;DHT22;16786;49.466;11.068;2023-02-20T13:46:58;20.40;99.90
29917;DHT22;16786;49.466;11.068;2023-02-20T13:52:31;20.90;98.40
29917;DHT22;16786;49.466;11.068;2023-02-20T13:57:53;21.40;96.60
29917;DHT22;16786;49.466;11.068;2023-02-20T14:02:51;20.40;96.60
29917;DHT22;16786;49.466;11.068;2023-02-20T14:05:28;19.30;97.90
29917;DHT22;16786;49.466;11.068;2023-02-20T14:07:58;19.20;98.10
29917;DHT22;16786;49.466;11.068;2023-02-20T14:10:32;19.30;98.10
29917;DHT22;16786;49.466;11.068;2023-02-20T14:13:02;19.50;98.20
29917;DHT22;16786;49.466;11.068;2023-02-20T14:15:32;19.90;97.60
29917;DHT22;16786;49.466;11.068;2023-02-20T14:18:16;20.50;96.60
29917;DHT22;16786;49.466;11.068;2023-02-20T14:20:44;20.60;96.30
29917;DHT22;16786;49.466;11.068;2023-02-20T14:25:38;22.00;94.30
29917;DHT22;16786;49.466;11.068;2023-02-20T14:28:21;22.20;92.80
29917;DHT22;16786;49.466;11.068;2023-02-20T14:34:32;21.90;92.20
29917;DHT22;16786;49.466;11.068;2023-02-20T14:37:08;20.80;93.00
29917;DHT22;16786;49.466;11.068;2023-02-20T14:39:49;21.00;92.50
29917;DHT22;16786;49.466;11.068;2023-02-20T14:42:23;21.10;92.30
29917;DHT22;16786;49.466;11.068;2023-02-20T14:45:03;20.70;92.70
29917;DHT22;16786;49.466;11.068;2023-02-20T14:47:32;21.50;92.40
29917;DHT22;16786;49.466;11.068;2023-02-20T14:50:15;21.30;91.90
29917;DHT22;16786;49.466;11.068;2023-02-20T14:52:43;21.60;91.10
29917;DHT22;16786;49.466;11.068;2023-02-20T14:55:15;20.40;92.00
29917;DHT22;16786;49.466;11.068;2023-02-20T14:57:43;20.90;91.90
29917;DHT22;16786;49.466;11.068;2023-02-20T15:00:23;21.20;91.70
29917;DHT22;16786;49.466;11.068;2023-02-20T15:02:53;21.60;91.40
29917;DHT22;16786;49.466;11.068;2023-02-20T15:05:32;21.40;91.00
29917;DHT22;16786;49.466;11.068;2023-02-20T15:08:03;21.50;90.90
29917;DHT22;16786;49.466;11.068;2023-02-20T15:10:40;21.60;90.60
29917;DHT22;16786;49.466;11.068;2023-02-20T15:13:14;21.10;90.90
29917;DHT22;16786;49.466;11.068;2023-02-20T15:15:47;21.40;90.80
29917;DHT22;16786;49.466;11.068;2023-02-20T15:18:36;20.80;91.20
29917;DHT22;16786;49.466;11.068;2023-02-20T15:21:05;20.30;91.80
29917;DHT22;16786;49.466;11.068;2023-02-20T15:23:42;19.50;92.40
29917;DHT22;16786;49.466;11.068;2023-02-20T15:26:29;19.30;92.70
29917;DHT22;16786;49.466;11.068;2023-02-20T15:29:25;18.70;92.90
29917;DHT22;16786;49.466;11.068;2023-02-20T15:32:00;18.50;93.40
29917;DHT22;16786;49.466;11.068;2023-02-20T15:34:34;18.80;93.70
29917;DHT22;16786;49.466;11.068;2023-02-20T15:37:21;19.80;93.10
29917;DHT22;16786;49.466;11.068;2023-02-20T15:40:25;20.20;92.20
29917;DHT22;16786;49.466;11.068;2023-02-20T15:42:54;19.80;92.90
29917;DHT22;16786;49.466;11.068;2023-02-20T15:45:29;20.30;92.90
29917;DHT22;16786;49.466;11.068;2023-02-20T15:47:57;21.30;91.60
29917;DHT22;16786;49.466;11.068;2023-02-20T15:50:25;21.20;91.60
29917;DHT22;16786;49.466;11.068;2023-02-20T15:52:54;21.00;91.00
29917;DHT22;16786;49.466;11.068;2023-02-20T15:55:22;21.20;91.10
29917;DHT22;16786;49.466;11.068;2023-02-20T15:57:53;20.80;90.90
29917;DHT22;16786;49.466;11.068;2023-02-20T16:00:26;19.90;91.60
29917;DHT22;16786;49.466;11.068;2023-02-20T16:02:53;19.50;91.90
29917;DHT22;16786;49.466;11.068;2023-02-20T16:05:21;18.90;92.80
29917;DHT22;16786;49.466;11.068;2023-02-20T16:07:48;19.00;92.20
29917;DHT22;16786;49.466;11.068;2023-02-20T16:10:20;19.10;92.40
29917;DHT22;16786;49.466;11.068;2023-02-20T16:12:52;19.30;92.10
29917;DHT22;16786;49.466;11.068;2023-02-20T16:15:21;19.50;92.10
29917;DHT22;16786;49.466;11.068;2023-02-20T16:17:48;18.60;92.40
29917;DHT22;16786;49.466;11.068;2023-02-20T16:20:28;17.80;93.70
29917;DHT22;16786;49.466;11.068;2023-02-20T16:22:56;17.30;94.10
29917;DHT22;16786;49.466;11.068;2023-02-20T16:25:24;17.10;94.90
29917;DHT22;16786;49.466;11.068;2023-02-20T16:27:53;16.90;95.20
29917;DHT22;16786;49.466;11.068;2023-02-20T16:30:32;16.60;95.90
29917;DHT22;16786;49.466;11.068;2023-02-20T16:33:02;16.30;96.50
29917;DHT22;16786;49.466;11.068;2023-02-20T16:35:37;16.20;96.80
29917;DHT22;16786;49.466;11.068;2023-02-20T16:38:05;15.80;98.20
29917;DHT22;16786;49.466;11.068;2023-02-20T16:40:33;15.10;98.90
29917;DHT22;16786;49.466;11.068;2023-02-20T16:43:01;14.60;99.90
29917;DHT22;16786;49.466;11.068;2023-02-20T16:45:29;13.80;99.90
29917;DHT22;16786;49.466;11.068;2023-02-20T16:47:59;13.10;99.90
29917;DHT22;16786;49.466;11.068;2023-02-20T16:50:28;12.80;99.90
29917;DHT22;16786;49.466;11.068;2023-02-20T16:52:58;12.50;99.90
29917;DHT22;16786;49.466;11.068;2023-02-20T16:55:36;12.30;99.90
29917;DHT22;16786;49.466;11.068;2023-02-20T16:58:05;12.10;99.90
29917;DHT22;16786;49.466;11.068;2023-02-20T17:00:36;11.90;99.90
29917;DHT22;16786;49.466;11.068;2023-02-20T17:03:23;11.80;99.90
29917;DHT22;16786;49.466;11.068;2023-02-20T17:05:52;11.70;99.90
29917;DHT22;16786;49.466;11.068;2023-02-20T17:08:26;11.50;99.90
29917;DHT22;16786;49.466;11.068;2023-02-20T17:10:58;11.40;99.90
29917;DHT22;16786;49.466;11.068;2023-02-20T17:13:27;11.40;99.90
29917;DHT22;16786;49.466;11.068;2023-02-20T17:15:55;11.30;99.90
29917;DHT22;16786;49.466;11.068;2023-02-20T17:18:24;11.20;99.90
29917;DHT22;16786;49.466;11.068;2023-02-20T17:20:52;11.00;99.90
29917;DHT22;16786;49.466;11.068;2023-02-20T17:23:23;11.00;99.90
29917;DHT22;16786;49.466;11.068;2023-02-20T17:25:51;10.90;99.90
29917;DHT22;16786;49.466;11.068;2023-02-20T17:28:19;10.90;99.90
29917;DHT22;16786;49.466;11.068;2023-02-20T17:30:49;10.80;99.90
29917;DHT22;16786;49.466;11.068;2023-02-20T17:33:21;10.80;99.90
29917;DHT22;16786;49.466;11.068;2023-02-20T17:35:53;10.70;99.90
29917;DHT22;16786;49.466;11.068;2023-02-20T17:38:21;10.80;99.90
29917;DHT22;16786;49.466;11.068;2023-02-20T17:40:48;10.70;99.90
29917;DHT22;16786;49.466;11.068;2023-02-20T17:43:15;10.80;99.90
29917;DHT22;16786;49.466;11.068;2023-02-20T17:45:42;10.80;99.90
29917;DHT22;16786;49.466;11.068;2023-02-20T17:48:10;10.70;99.90
29917;DHT22;16786;49.466;11.068;2023-02-20T17:50:37;10.70;99.90
29917;DHT22;16786;49.466;11.068;2023-02-20T17:53:04;10.70;99.90
29917;DHT22;16786;49.466;11.068;2023-02-20T17:55:35;10.60;99.90